Time;durP1;ratioP1;P1;durP2;ratioP2;P2;SDS_P1;SDS_P2;PMS_P1;PMS_P2;Temp;Humidity;BMP_temperature;BMP_pressure;BME280_temperature;BME280_humidity;BME280_pressure;Samples;Min_cycle;Max_cycle;Signal;HPM_P1;HPM_P2
2023/09/13 00:01:56;;;;;;;3.42;1.77;;;;;;;;;;6186041;23;20075;-69
2023/09/13 00:04:24;;;;;;;8.65;2.35;;;;;;;;;;6186049;23;20076;-69
2023/09/13 00:06:50;;;;;;;2.13;1.50;;;;;;;;;;6186159;23;20090;-69
2023/09/13 00:09:16;;;;;;;2.20;1.75;;;;;;;;;;6185962;23;20085;-69
2023/09/13 00:11:43;;;;;;;3.85;1.98;;;;;;;;;;6185659;23;20114;-69
2023/09/13 00:14:09;;;;;;;4.65;1.90;;;;;;;;;;6186033;23;20503;-69
2023/09/13 00:16:35;;;;;;;2.90;1.73;;;;;;;;;;6185881;23;20056;-69
2023/09/13 00:19:04;;;;;;;3.53;1.77;;;;;;;;;;6185905;23;20084;-69
2023/09/13 00:21:31;;;;;;;2.78;1.60;;;;;;;;;;6185892;23;20075;-69
2023/09/13 00:23:57;;;;;;;2.85;1.73;;;;;;;;;;6185833;23;20132;-69
2023/09/13 00:26:23;;;;;;;4.13;2.03;;;;;;;;;;6185432;23;20092;-68
2023/09/13 00:28:50;;;;;;;3.53;2.10;;;;;;;;;;6185892;23;20068;-69
2023/09/13 00:31:16;;;;;;;3.55;1.77;;;;;;;;;;6185784;23;20072;-69
2023/09/13 00:33:43;;;;;;;3.15;1.55;;;;;;;;;;6185801;23;20080;-69
2023/09/13 00:36:09;;;;;;;2.10;1.50;;;;;;;;;;6185980;23;20135;-69
2023/09/13 00:38:35;;;;;;;4.22;2.10;;;;;;;;;;6185766;23;20072;-68
2023/09/13 00:41:02;;;;;;;2.72;1.83;;;;;;;;;;6185416;23;20077;-68
2023/09/13 00:43:28;;;;;;;3.67;1.65;;;;;;;;;;6185876;23;20077;-69
2023/09/13 00:45:55;;;;;;;4.78;1.75;;;;;;;;;;6185624;23;20064;-69
2023/09/13 00:48:23;;;;;;;2.55;1.65;;;;;;;;;;6185728;23;20135;-69
2023/09/13 00:50:50;;;;;;;3.80;1.95;;;;;;;;;;6185729;23;20369;-69
2023/09/13 00:53:17;;;;;;;1.92;1.73;;;;;;;;;;6185534;23;20072;-69
2023/09/13 00:55:44;;;;;;;4.10;2.05;;;;;;;;;;6185361;23;20088;-69
2023/09/13 00:58:11;;;;;;;2.88;1.80;;;;;;;;;;6185600;23;20068;-69
2023/09/13 01:00:37;;;;;;;3.33;1.60;;;;;;;;;;6185621;23;20069;-69
2023/09/13 01:03:07;;;;;;;2.20;1.60;;;;;;;;;;6185518;23;20077;-69
2023/09/13 01:05:35;;;;;;;3.63;1.85;;;;;;;;;;6185352;23;20399;-69
2023/09/13 01:08:02;;;;;;;3.65;1.73;;;;;;;;;;6159147;23;20092;-68
2023/09/13 01:10:28;;;;;;;5.80;1.95;;;;;;;;;;6158819;23;20072;-69
2023/09/13 01:12:54;;;;;;;3.05;1.70;;;;;;;;;;6185801;23;20080;-68
2023/09/13 01:15:23;;;;;;;2.47;1.92;;;;;;;;;;6185284;23;20124;-68
2023/09/13 01:17:55;;;;;;;2.83;1.60;;;;;;;;;;6185488;23;20072;-69
2023/09/13 01:20:37;;;;;;;3.45;1.80;;;;;;;;;;6185472;23;20064;-69
2023/09/13 01:23:25;;;;;;;3.35;1.92;;;;;;;;;;6184754;23;20092;-69
2023/09/13 01:26:10;;;;;;;2.42;1.70;;;;;;;;;;6185147;23;20080;-69
2023/09/13 01:28:40;;;;;;;4.97;2.10;;;;;;;;;;6185263;23;20072;-69
2023/09/13 01:31:07;;;;;;;3.70;1.83;;;;;;;;;;6185363;23;20068;-68
2023/09/13 01:33:34;;;;;;;3.97;1.92;;;;;;;;;;6185187;23;20084;-69
2023/09/13 01:36:00;;;;;;;2.00;1.65;;;;;;;;;;6184898;23;20092;-69
2023/09/13 01:38:27;;;;;;;2.80;1.80;;;;;;;;;;6184731;23;20080;-69
2023/09/13 01:40:57;;;;;;;3.08;2.15;;;;;;;;;;6184999;23;20076;-69
2023/09/13 01:43:24;;;;;;;5.63;1.85;;;;;;;;;;6185012;23;20079;-68
2023/09/13 01:45:51;;;;;;;2.33;1.90;;;;;;;;;;6185180;23;20119;-69
2023/09/13 01:48:19;;;;;;;5.10;1.80;;;;;;;;;;6185052;23;20076;-69
2023/09/13 01:50:46;;;;;;;2.83;1.90;;;;;;;;;;6185049;23;20072;-69
2023/09/13 01:53:13;;;;;;;2.60;1.75;;;;;;;;;;6184576;23;20080;-68
2023/09/13 01:55:39;;;;;;;2.67;1.83;;;;;;;;;;6185009;23;20084;-68
2023/09/13 01:58:05;;;;;;;4.15;1.85;;;;;;;;;;6184943;23;20508;-68
2023/09/13 02:00:32;;;;;;;3.80;2.05;;;;;;;;;;6184968;23;20072;-69
2023/09/13 02:02:58;;;;;;;5.28;2.00;;;;;;;;;;6185007;23;20115;-69
2023/09/13 02:05:24;;;;;;;5.32;1.92;;;;;;;;;;6184902;23;20511;-69
2023/09/13 02:07:51;;;;;;;7.18;1.85;;;;;;;;;;6184887;23;20445;-68
2023/09/13 02:10:18;;;;;;;2.97;1.88;;;;;;;;;;6185013;23;20076;-69
2023/09/13 02:12:44;;;;;;;5.30;1.85;;;;;;;;;;6184769;23;20080;-68
2023/09/13 02:15:12;;;;;;;4.72;2.00;;;;;;;;;;6184767;23;20065;-68
2023/09/13 02:17:38;;;;;;;2.85;2.13;;;;;;;;;;6184798;23;20092;-69
2023/09/13 02:20:05;;;;;;;3.10;2.00;;;;;;;;;;6184797;23;20072;-69
2023/09/13 02:22:31;;;;;;;6.03;2.33;;;;;;;;;;6184178;23;20084;-68
2023/09/13 02:24:58;;;;;;;4.45;2.05;;;;;;;;;;6184710;23;20088;-69
2023/09/13 02:27:24;;;;;;;4.22;2.05;;;;;;;;;;6184697;23;20072;-69
2023/09/13 02:29:51;;;;;;;2.28;1.83;;;;;;;;;;6184646;23;20075;-69
2023/09/13 02:32:17;;;;;;;2.35;1.88;;;;;;;;;;6184769;23;20072;-69
2023/09/13 02:34:44;;;;;;;5.22;2.13;;;;;;;;;;6184408;23;20092;-68
2023/09/13 02:37:10;;;;;;;3.45;2.10;;;;;;;;;;6184190;23;20079;-69
2023/09/13 02:39:38;;;;;;;3.92;2.10;;;;;;;;;;6184809;23;20131;-69
2023/09/13 02:42:05;;;;;;;4.68;2.28;;;;;;;;;;6184567;23;20076;-69
2023/09/13 02:44:32;;;;;;;2.58;2.05;;;;;;;;;;6184793;23;20075;-69
2023/09/13 02:46:58;;;;;;;2.75;2.05;;;;;;;;;;6184694;23;20068;-69
2023/09/13 02:49:25;;;;;;;2.75;1.92;;;;;;;;;;6184534;23;20064;-69
2023/09/13 02:51:51;;;;;;;5.15;2.53;;;;;;;;;;6184481;23;20075;-69
2023/09/13 02:54:18;;;;;;;2.35;2.03;;;;;;;;;;6184673;23;20076;-69
2023/09/13 02:56:45;;;;;;;4.50;1.83;;;;;;;;;;6184448;23;20088;-69
2023/09/13 02:59:11;;;;;;;3.28;1.90;;;;;;;;;;6184605;23;20383;-68
2023/09/13 03:01:38;;;;;;;2.42;1.90;;;;;;;;;;6184446;23;20076;-69
2023/09/13 03:04:04;;;;;;;3.13;2.05;;;;;;;;;;6184593;23;20072;-68
2023/09/13 03:06:30;;;;;;;2.78;2.08;;;;;;;;;;6184139;23;20407;-68
2023/09/13 03:08:57;;;;;;;2.83;1.73;;;;;;;;;;6184579;23;20370;-68
2023/09/13 03:11:23;;;;;;;4.78;2.00;;;;;;;;;;6184359;23;20097;-68
2023/09/13 03:13:49;;;;;;;3.67;2.20;;;;;;;;;;6184460;23;20068;-69
2023/09/13 03:16:17;;;;;;;2.83;1.90;;;;;;;;;;6184471;23;20105;-68
2023/09/13 03:18:43;;;;;;;2.80;1.83;;;;;;;;;;6184594;23;20108;-69
2023/09/13 03:21:10;;;;;;;2.60;2.10;;;;;;;;;;6183997;23;20080;-69
2023/09/13 03:23:37;;;;;;;3.13;2.10;;;;;;;;;;6184444;23;20080;-69
2023/09/13 03:26:17;;;;;;;2.38;1.98;;;;;;;;;;6184370;23;20088;-69
2023/09/13 03:28:45;;;;;;;3.83;2.25;;;;;;;;;;6158551;23;20091;-69
2023/09/13 03:31:12;;;;;;;5.57;2.00;;;;;;;;;;6186190;23;20079;-68
2023/09/13 03:33:41;;;;;;;2.75;1.70;;;;;;;;;;6185958;23;20067;-68
2023/09/13 03:36:08;;;;;;;2.20;1.85;;;;;;;;;;6186314;23;20096;-69
2023/09/13 03:38:38;;;;;;;3.42;2.00;;;;;;;;;;6186664;23;20531;-69
2023/09/13 03:41:05;;;;;;;2.80;2.00;;;;;;;;;;6186404;23;20068;-68
2023/09/13 03:43:31;;;;;;;5.00;1.75;;;;;;;;;;6186289;23;20076;-68
2023/09/13 03:45:58;;;;;;;3.10;1.98;;;;;;;;;;6186338;23;20072;-68
2023/09/13 03:48:24;;;;;;;2.50;2.15;;;;;;;;;;6185912;23;20071;-69
2023/09/13 03:50:50;;;;;;;3.75;2.20;;;;;;;;;;6186180;23;20080;-69
2023/09/13 03:53:17;;;;;;;4.90;2.38;;;;;;;;;;6186224;23;20088;-69
2023/09/13 03:55:43;;;;;;;2.80;2.10;;;;;;;;;;6185936;23;20080;-68
2023/09/13 03:58:10;;;;;;;4.65;2.53;;;;;;;;;;6186274;23;20491;-68
2023/09/13 04:00:36;;;;;;;4.00;2.40;;;;;;;;;;6186107;23;20067;-68
2023/09/13 04:03:03;;;;;;;5.15;2.92;;;;;;;;;;6185701;23;20461;-69
2023/09/13 04:05:30;;;;;;;2.83;2.20;;;;;;;;;;6186132;23;20491;-68
2023/09/13 04:07:56;;;;;;;4.85;2.47;;;;;;;;;;6186111;23;20080;-68
2023/09/13 04:10:23;;;;;;;4.68;2.30;;;;;;;;;;6186169;23;20075;-68
2023/09/13 04:12:49;;;;;;;3.88;2.40;;;;;;;;;;6159690;23;20096;-69
2023/09/13 04:15:16;;;;;;;4.57;2.35;;;;;;;;;;6185886;23;20080;-69
2023/09/13 04:17:42;;;;;;;5.35;2.55;;;;;;;;;;6185660;23;20069;-69
2023/09/13 04:20:09;;;;;;;3.78;2.50;;;;;;;;;;6186017;23;20081;-69
2023/09/13 04:22:36;;;;;;;5.30;2.65;;;;;;;;;;6185606;23;20064;-69
2023/09/13 04:25:02;;;;;;;3.30;2.50;;;;;;;;;;6185853;23;20096;-68
2023/09/13 04:27:29;;;;;;;4.60;2.88;;;;;;;;;;6185928;23;20379;-69
2023/09/13 04:29:55;;;;;;;4.10;2.65;;;;;;;;;;6185909;23;20080;-68
2023/09/13 04:32:22;;;;;;;4.43;2.60;;;;;;;;;;6185396;23;20084;-68
2023/09/13 04:34:48;;;;;;;5.20;2.70;;;;;;;;;;6185799;23;20080;-69
2023/09/13 04:37:15;;;;;;;4.50;2.53;;;;;;;;;;6185740;23;20072;-69
2023/09/13 04:39:41;;;;;;;5.53;2.88;;;;;;;;;;6185759;23;20075;-68
2023/09/13 04:42:08;;;;;;;3.85;2.60;;;;;;;;;;6185294;23;20116;-68
2023/09/13 04:44:34;;;;;;;4.13;2.90;;;;;;;;;;6185803;23;20088;-69
2023/09/13 04:47:00;;;;;;;9.85;2.78;;;;;;;;;;6185263;23;20076;-69
2023/09/13 04:49:27;;;;;;;4.15;2.70;;;;;;;;;;6185628;23;20071;-69
2023/09/13 04:51:54;;;;;;;4.68;3.45;;;;;;;;;;6185586;23;20075;-68
2023/09/13 04:54:22;;;;;;;5.10;3.25;;;;;;;;;;6185747;23;20499;-68
2023/09/13 04:56:51;;;;;;;4.07;3.33;;;;;;;;;;6185660;23;20080;-69
2023/09/13 04:59:18;;;;;;;5.90;2.85;;;;;;;;;;6185595;23;20084;-68
2023/09/13 05:01:45;;;;;;;5.07;3.13;;;;;;;;;;6185206;23;20389;-69
2023/09/13 05:04:11;;;;;;;4.93;3.25;;;;;;;;;;6185552;23;20080;-69
2023/09/13 05:06:37;;;;;;;4.75;3.10;;;;;;;;;;6185533;23;20092;-69
2023/09/13 05:09:05;;;;;;;4.60;3.08;;;;;;;;;;6185515;23;20096;-69
2023/09/13 05:11:31;;;;;;;3.47;3.17;;;;;;;;;;6185341;23;20068;-69
2023/09/13 05:14:11;;;;;;;7.32;3.47;;;;;;;;;;6185478;23;20131;-69
2023/09/13 05:16:37;;;;;;;5.65;3.10;;;;;;;;;;6184977;23;20023;-69
2023/09/13 05:19:03;;;;;;;3.50;3.00;;;;;;;;;;6185384;23;20490;-68
2023/09/13 05:21:30;;;;;;;6.10;3.33;;;;;;;;;;6185196;23;20176;-69
2023/09/13 05:23:56;;;;;;;6.10;3.50;;;;;;;;;;6185127;23;20436;-68
2023/09/13 05:26:22;;;;;;;5.13;3.70;;;;;;;;;;6185118;23;20404;-68
2023/09/13 05:28:49;;;;;;;5.03;3.33;;;;;;;;;;6185335;23;20077;-68
2023/09/13 05:31:15;;;;;;;5.40;3.17;;;;;;;;;;6184891;23;20079;-69
2023/09/13 05:33:42;;;;;;;6.10;3.45;;;;;;;;;;6185286;23;20072;-68
2023/09/13 05:36:09;;;;;;;5.70;3.63;;;;;;;;;;6185226;23;20084;-69
2023/09/13 05:38:35;;;;;;;5.20;3.50;;;;;;;;;;6158895;23;20073;-69
2023/09/13 05:41:20;;;;;;;5.32;3.30;;;;;;;;;;6185187;23;20069;-68
2023/09/13 05:43:46;;;;;;;6.03;3.28;;;;;;;;;;6185148;23;20507;-68
2023/09/13 05:46:12;;;;;;;4.22;3.63;;;;;;;;;;6184715;23;20076;-68
2023/09/13 05:48:39;;;;;;;3.40;3.10;;;;;;;;;;6185019;23;20072;-68
2023/09/13 05:51:05;;;;;;;6.65;3.80;;;;;;;;;;6184906;23;20084;-69
2023/09/13 05:53:31;;;;;;;4.60;3.63;;;;;;;;;;6185062;23;20395;-69
2023/09/13 05:55:57;;;;;;;4.82;3.90;;;;;;;;;;6184986;23;20087;-69
2023/09/13 05:58:24;;;;;;;5.18;4.05;;;;;;;;;;6184468;23;20484;-68
2023/09/13 06:00:51;;;;;;;8.55;4.35;;;;;;;;;;6184930;23;20391;-69
2023/09/13 06:03:18;;;;;;;6.25;3.92;;;;;;;;;;6184686;23;20080;-68
2023/09/13 06:05:45;;;;;;;4.90;4.00;;;;;;;;;;6181572;23;20072;-68
2023/09/13 06:08:11;;;;;;;8.80;4.13;;;;;;;;;;6183985;23;20127;-69
2023/09/13 06:10:37;;;;;;;9.55;4.43;;;;;;;;;;6184144;23;20072;-69
2023/09/13 06:13:04;;;;;;;8.43;4.22;;;;;;;;;;6183902;23;20092;-69
2023/09/13 06:15:30;;;;;;;4.80;4.07;;;;;;;;;;6184212;23;20063;-68
2023/09/13 06:17:56;;;;;;;6.80;4.75;;;;;;;;;;6184316;23;20076;-68
2023/09/13 06:20:23;;;;;;;4.70;3.90;;;;;;;;;;6179528;23;20064;-69
2023/09/13 06:22:49;;;;;;;4.85;3.80;;;;;;;;;;6179643;23;20092;-72
2023/09/13 06:25:17;;;;;;;6.45;4.25;;;;;;;;;;6182702;23;20061;-72
2023/09/13 06:27:46;;;;;;;6.32;4.28;;;;;;;;;;6155811;23;20092;-72
2023/09/13 06:30:15;;;;;;;6.65;4.65;;;;;;;;;;6182360;23;20080;-72
2023/09/13 06:32:42;;;;;;;7.35;4.55;;;;;;;;;;6183009;23;20454;-69
2023/09/13 06:35:12;;;;;;;6.03;4.40;;;;;;;;;;6181637;23;20072;-70
2023/09/13 06:37:39;;;;;;;6.32;4.40;;;;;;;;;;6183234;23;20487;-71
2023/09/13 06:40:05;;;;;;;9.13;4.90;;;;;;;;;;6183684;23;20064;-70
2023/09/13 06:42:32;;;;;;;7.50;4.85;;;;;;;;;;6183442;23;20092;-70
2023/09/13 06:44:59;;;;;;;6.13;4.25;;;;;;;;;;6182979;23;20076;-71
2023/09/13 06:47:28;;;;;;;10.00;4.47;;;;;;;;;;6180960;23;20815;-72
2023/09/13 06:49:55;;;;;;;5.68;4.78;;;;;;;;;;6182343;23;20077;-72
2023/09/13 06:52:21;;;;;;;6.30;4.30;;;;;;;;;;6181425;23;20084;-72
2023/09/13 06:54:48;;;;;;;10.75;4.93;;;;;;;;;;6183050;23;20076;-72
2023/09/13 06:57:15;;;;;;;11.27;4.80;;;;;;;;;;6180116;23;20013;-72
2023/09/13 06:59:41;;;;;;;6.50;5.25;;;;;;;;;;6181686;23;20072;-71
2023/09/13 07:02:08;;;;;;;9.63;5.05;;;;;;;;;;6181958;23;20485;-71
2023/09/13 07:04:34;;;;;;;9.85;4.63;;;;;;;;;;6184206;23;20065;-71
2023/09/13 07:07:00;;;;;;;5.35;4.40;;;;;;;;;;6185068;23;20084;-70
2023/09/13 07:09:27;;;;;;;10.63;5.03;;;;;;;;;;6186105;23;20124;-71
2023/09/13 07:11:53;;;;;;;8.55;5.00;;;;;;;;;;6184912;23;20080;-72
2023/09/13 07:14:19;;;;;;;8.27;4.80;;;;;;;;;;6185227;23;20092;-71
2023/09/13 07:16:46;;;;;;;9.25;5.20;;;;;;;;;;6185669;23;20017;-70
2023/09/13 07:19:12;;;;;;;5.30;4.80;;;;;;;;;;6159012;23;20071;-71
2023/09/13 07:21:38;;;;;;;6.65;5.10;;;;;;;;;;6185610;23;20076;-71
2023/09/13 07:24:05;;;;;;;8.27;5.50;;;;;;;;;;6185805;23;20080;-71
2023/09/13 07:26:31;;;;;;;10.27;5.50;;;;;;;;;;6184971;23;20080;-71
2023/09/13 07:28:58;;;;;;;9.73;4.90;;;;;;;;;;6185489;23;20511;-71
2023/09/13 07:31:24;;;;;;;7.25;5.18;;;;;;;;;;6186004;23;20080;-71
2023/09/13 07:33:50;;;;;;;15.15;5.40;;;;;;;;;;6185578;23;20369;-72
2023/09/13 07:36:17;;;;;;;9.27;5.55;;;;;;;;;;6183702;23;20024;-72
2023/09/13 07:38:44;;;;;;;9.27;5.40;;;;;;;;;;6185723;23;20123;-71
2023/09/13 07:41:12;;;;;;;7.68;4.90;;;;;;;;;;6184888;23;20079;-72
2023/09/13 07:43:38;;;;;;;9.93;5.15;;;;;;;;;;6185656;23;20532;-70
2023/09/13 07:46:06;;;;;;;7.22;4.80;;;;;;;;;;6185643;23;20085;-73
2023/09/13 07:48:32;;;;;;;12.05;5.53;;;;;;;;;;6184879;23;20381;-70
2023/09/13 07:50:58;;;;;;;12.23;5.50;;;;;;;;;;6186010;23;20104;-71
2023/09/13 07:53:25;;;;;;;11.43;5.40;;;;;;;;;;6185909;23;20064;-71
2023/09/13 07:55:51;;;;;;;10.88;5.60;;;;;;;;;;6183998;23;20067;-70
2023/09/13 07:58:17;;;;;;;5.53;4.75;;;;;;;;;;6186211;23;20080;-71
2023/09/13 08:00:45;;;;;;;7.72;5.75;;;;;;;;;;6185664;23;20080;-70
2023/09/13 08:03:11;;;;;;;7.72;4.85;;;;;;;;;;6185935;23;20387;-71
2023/09/13 08:05:37;;;;;;;14.48;5.55;;;;;;;;;;6184937;23;20076;-71
2023/09/13 08:08:04;;;;;;;17.20;6.45;;;;;;;;;;6185538;23;20785;-71
2023/09/13 08:10:31;;;;;;;12.13;5.60;;;;;;;;;;6185390;23;20135;-71
2023/09/13 08:12:57;;;;;;;9.30;5.40;;;;;;;;;;6184934;23;20420;-70
2023/09/13 08:15:24;;;;;;;15.55;5.32;;;;;;;;;;6184396;23;20005;-69
2023/09/13 08:17:50;;;;;;;8.35;5.45;;;;;;;;;;6184562;23;20075;-70
2023/09/13 08:20:16;;;;;;;7.47;5.03;;;;;;;;;;6184522;23;20135;-70
2023/09/13 08:22:43;;;;;;;11.65;5.03;;;;;;;;;;6184229;23;20116;-71
2023/09/13 08:25:09;;;;;;;8.23;5.68;;;;;;;;;;6184213;23;20100;-69
2023/09/13 08:27:35;;;;;;;9.10;5.53;;;;;;;;;;6184706;23;20080;-72
2023/09/13 08:30:03;;;;;;;8.30;5.53;;;;;;;;;;6184725;23;20091;-70
2023/09/13 08:32:30;;;;;;;12.43;5.80;;;;;;;;;;6184441;23;20080;-70
2023/09/13 08:34:56;;;;;;;9.45;5.80;;;;;;;;;;6184980;23;20121;-72
2023/09/13 08:37:22;;;;;;;9.82;5.75;;;;;;;;;;6184171;23;20407;-71
2023/09/13 08:39:49;;;;;;;8.13;5.40;;;;;;;;;;6184048;23;20100;-72
2023/09/13 08:42:15;;;;;;;9.43;5.72;;;;;;;;;;6184486;23;20064;-71
2023/09/13 08:44:42;;;;;;;6.80;5.30;;;;;;;;;;6184250;23;20085;-72
2023/09/13 08:47:10;;;;;;;8.13;5.80;;;;;;;;;;6184563;23;20076;-72
2023/09/13 08:49:37;;;;;;;6.60;5.63;;;;;;;;;;6184668;23;20072;-72
2023/09/13 08:52:04;;;;;;;7.20;6.03;;;;;;;;;;6158078;23;20087;-70
2023/09/13 08:54:30;;;;;;;8.20;5.70;;;;;;;;;;6183993;23;20084;-72
2023/09/13 08:56:57;;;;;;;11.65;6.40;;;;;;;;;;6184071;23;20017;-71
2023/09/13 08:59:23;;;;;;;8.75;5.30;;;;;;;;;;6183616;23;20076;-71
2023/09/13 09:01:50;;;;;;;7.18;5.05;;;;;;;;;;6184227;23;20487;-72
2023/09/13 09:04:17;;;;;;;5.13;4.60;;;;;;;;;;6184410;23;20088;-72
2023/09/13 09:06:44;;;;;;;6.95;4.25;;;;;;;;;;6183780;23;20659;-71
2023/09/13 09:09:12;;;;;;;5.25;4.00;;;;;;;;;;6184019;23;20080;-72
2023/09/13 09:11:39;;;;;;;4.15;3.55;;;;;;;;;;6184308;23;20476;-71
2023/09/13 09:14:06;;;;;;;5.22;4.13;;;;;;;;;;6183901;23;20069;-72
2023/09/13 09:16:33;;;;;;;3.70;3.10;;;;;;;;;;6183326;23;20013;-71
2023/09/13 09:19:01;;;;;;;3.60;3.00;;;;;;;;;;6133204;23;20082;-72
2023/09/13 09:21:27;;;;;;;3.00;2.67;;;;;;;;;;6183538;23;20473;-73
2023/09/13 09:23:56;;;;;;;3.25;2.60;;;;;;;;;;6157831;23;20084;-72
2023/09/13 09:26:23;;;;;;;3.40;2.50;;;;;;;;;;6183575;23;20084;-72
2023/09/13 09:28:49;;;;;;;2.67;2.47;;;;;;;;;;6183999;23;20377;-73
2023/09/13 09:31:19;;;;;;;2.50;2.30;;;;;;;;;;6183973;23;20088;-72
2023/09/13 09:33:45;;;;;;;2.47;2.10;;;;;;;;;;6184183;23;20384;-72
2023/09/13 09:36:16;;;;;;;4.43;2.17;;;;;;;;;;6183588;23;20825;-71
2023/09/13 09:38:44;;;;;;;3.78;2.10;;;;;;;;;;6182770;23;20107;-71
2023/09/13 09:41:10;;;;;;;1.85;1.73;;;;;;;;;;6157482;23;20084;-72
2023/09/13 09:43:37;;;;;;;2.08;1.88;;;;;;;;;;6183015;23;20075;-73
2023/09/13 09:46:03;;;;;;;4.05;1.80;;;;;;;;;;6183794;23;20076;-73
2023/09/13 09:48:30;;;;;;;1.60;1.50;;;;;;;;;;6183767;23;20076;-73
2023/09/13 09:50:56;;;;;;;3.17;1.80;;;;;;;;;;6183020;23;20108;-73
2023/09/13 09:53:23;;;;;;;1.98;1.58;;;;;;;;;;6183512;23;20087;-73
2023/09/13 09:55:51;;;;;;;3.70;2.03;;;;;;;;;;6156065;23;20068;-69
2023/09/13 09:58:17;;;;;;;4.18;1.60;;;;;;;;;;6183921;23;20083;-69
2023/09/13 10:00:45;;;;;;;3.20;2.00;;;;;;;;;;6183498;23;20076;-70
2023/09/13 10:03:17;;;;;;;2.15;1.60;;;;;;;;;;6183078;23;20076;-70
2023/09/13 10:06:03;;;;;;;2.67;1.73;;;;;;;;;;6183692;23;20064;-69
2023/09/13 10:08:37;;;;;;;3.95;1.60;;;;;;;;;;6184291;23;20088;-70
2023/09/13 10:11:03;;;;;;;2.00;1.50;;;;;;;;;;6184437;23;20075;-69
2023/09/13 10:13:33;;;;;;;2.97;1.70;;;;;;;;;;6184377;23;20080;-69
2023/09/13 10:16:03;;;;;;;1.90;1.70;;;;;;;;;;6184272;23;20084;-69
2023/09/13 10:18:34;;;;;;;2.95;1.70;;;;;;;;;;6184193;23;20303;-69
2023/09/13 10:21:03;;;;;;;2.65;1.80;;;;;;;;;;6183721;23;20399;-69
2023/09/13 10:23:31;;;;;;;2.28;2.00;;;;;;;;;;6184124;23;20096;-69
2023/09/13 10:25:59;;;;;;;2.22;2.03;;;;;;;;;;6184189;23;20511;-70
2023/09/13 10:28:29;;;;;;;4.35;2.22;;;;;;;;;;6184050;23;20025;-70
2023/09/13 10:30:57;;;;;;;2.42;2.20;;;;;;;;;;6184602;23;20433;-71
2023/09/13 10:33:24;;;;;;;2.10;1.77;;;;;;;;;;6155070;23;20106;-70
2023/09/13 10:35:54;;;;;;;2.13;1.90;;;;;;;;;;6180083;23;20070;-70
2023/09/13 10:38:26;;;;;;;2.10;1.90;;;;;;;;;;6182195;23;20076;-72
2023/09/13 10:41:00;;;;;;;3.92;1.70;;;;;;;;;;6182965;23;20527;-71
2023/09/13 10:43:27;;;;;;;4.35;1.98;;;;;;;;;;6183395;23;20068;-72
2023/09/13 10:45:53;;;;;;;5.00;2.63;;;;;;;;;;6183280;23;20084;-71
2023/09/13 10:48:20;;;;;;;10.80;3.58;;;;;;;;;;6183478;23;20076;-68
2023/09/13 10:50:47;;;;;;;8.00;3.33;;;;;;;;;;6183269;23;20084;-70
2023/09/13 10:53:14;;;;;;;11.60;3.50;;;;;;;;;;6183252;23;20068;-71
2023/09/13 10:55:41;;;;;;;3.58;3.00;;;;;;;;;;6183285;23;20487;-70
2023/09/13 10:58:09;;;;;;;8.95;3.20;;;;;;;;;;6183239;23;20602;-72
2023/09/13 11:00:37;;;;;;;5.72;2.90;;;;;;;;;;6183347;23;20072;-70
2023/09/13 11:03:04;;;;;;;6.60;3.10;;;;;;;;;;6182914;23;20084;-70
2023/09/13 11:05:33;;;;;;;5.85;2.75;;;;;;;;;;6185195;23;20084;-69
2023/09/13 11:07:59;;;;;;;4.07;2.47;;;;;;;;;;6184840;23;20084;-70
2023/09/13 11:10:30;;;;;;;3.72;2.63;;;;;;;;;;6181608;23;20372;-70
2023/09/13 11:12:56;;;;;;;2.90;2.60;;;;;;;;;;6181816;23;20076;-69
2023/09/13 11:15:23;;;;;;;3.22;2.40;;;;;;;;;;6157325;23;20146;-69
2023/09/13 11:17:52;;;;;;;8.52;4.60;;;;;;;;;;6182272;23;20084;-70
2023/09/13 11:20:38;;;;;;;14.55;3.70;;;;;;;;;;6184710;23;20081;-69
2023/09/13 11:23:09;;;;;;;12.65;3.72;;;;;;;;;;6156486;23;20125;-69
2023/09/13 11:26:02;;;;;;;8.98;2.63;;;;;;;;;;6181728;23;20515;-69
2023/09/13 11:28:30;;;;;;;5.38;2.35;;;;;;;;;;6178708;23;20078;-69
2023/09/13 11:31:01;;;;;;;5.32;2.20;;;;;;;;;;6183236;23;20091;-69
2023/09/13 11:33:28;;;;;;;5.07;1.90;;;;;;;;;;6183023;23;20080;-69
2023/09/13 11:35:56;;;;;;;6.15;2.45;;;;;;;;;;6183025;23;20019;-69
2023/09/13 11:38:23;;;;;;;6.10;3.30;;;;;;;;;;6183196;23;20087;-69
2023/09/13 11:40:50;;;;;;;6.50;2.33;;;;;;;;;;6183145;23;20519;-69
2023/09/13 11:43:21;;;;;;;7.20;2.72;;;;;;;;;;6180712;23;20153;-69
2023/09/13 11:45:51;;;;;;;6.45;2.72;;;;;;;;;;6182527;23;20091;-69
2023/09/13 11:48:21;;;;;;;4.57;2.30;;;;;;;;;;6156086;23;20068;-69
2023/09/13 11:50:51;;;;;;;3.80;2.35;;;;;;;;;;6183568;23;20127;-69
2023/09/13 11:53:24;;;;;;;4.00;2.10;;;;;;;;;;6184333;23;20068;-69
2023/09/13 11:55:53;;;;;;;4.78;2.53;;;;;;;;;;6184353;23;20093;-69
2023/09/13 11:58:24;;;;;;;10.10;6.20;;;;;;;;;;6184577;23;20092;-69
2023/09/13 12:00:52;;;;;;;8.02;4.28;;;;;;;;;;6184509;23;20084;-70
2023/09/13 12:03:19;;;;;;;3.50;2.88;;;;;;;;;;6184352;23;20587;-70
2023/09/13 12:05:46;;;;;;;3.28;1.90;;;;;;;;;;6132978;23;20606;-69
2023/09/13 12:08:19;;;;;;;2.53;1.70;;;;;;;;;;6184733;23;20068;-69
2023/09/13 12:10:45;;;;;;;3.38;1.92;;;;;;;;;;6184720;23;20092;-70
2023/09/13 12:13:12;;;;;;;5.07;1.70;;;;;;;;;;6184266;23;20093;-70
2023/09/13 12:15:59;;;;;;;3.22;1.70;;;;;;;;;;6184327;23;20084;-69
2023/09/13 12:18:25;;;;;;;1.95;1.40;;;;;;;;;;6182738;23;20072;-70
2023/09/13 12:20:51;;;;;;;1.95;1.73;;;;;;;;;;6183692;23;20084;-69
2023/09/13 12:23:18;;;;;;;2.58;1.83;;;;;;;;;;6184207;23;20072;-69
2023/09/13 12:25:46;;;;;;;1.98;1.70;;;;;;;;;;6183977;23;20113;-69
2023/09/13 12:28:24;;;;;;;1.88;1.70;;;;;;;;;;6183763;23;20127;-69
2023/09/13 12:30:50;;;;;;;2.47;1.85;;;;;;;;;;6183826;23;20072;-70
2023/09/13 12:33:16;;;;;;;1.98;1.88;;;;;;;;;;6184140;23;20515;-69
2023/09/13 12:35:43;;;;;;;5.65;1.92;;;;;;;;;;6183824;23;20380;-70
2023/09/13 12:38:09;;;;;;;2.22;2.00;;;;;;;;;;6183641;23;20104;-69
2023/09/13 12:40:36;;;;;;;3.17;2.20;;;;;;;;;;6183783;23;20071;-69
2023/09/13 12:43:02;;;;;;;5.72;2.08;;;;;;;;;;6157780;23;20087;-70
2023/09/13 12:45:32;;;;;;;2.78;1.90;;;;;;;;;;6183142;23;20089;-70
2023/09/13 12:48:00;;;;;;;3.53;2.00;;;;;;;;;;6184203;23;20500;-70
2023/09/13 12:50:26;;;;;;;4.90;2.30;;;;;;;;;;6181495;23;20080;-69
2023/09/13 12:52:53;;;;;;;2.42;1.80;;;;;;;;;;6183068;23;20079;-68
2023/09/13 12:55:22;;;;;;;1.45;1.20;;;;;;;;;;6183678;23;20080;-68
2023/09/13 12:57:50;;;;;;;2.53;1.88;;;;;;;;;;6183475;23;20085;-68
2023/09/13 13:00:16;;;;;;;4.05;1.80;;;;;;;;;;6183405;23;20080;-67
2023/09/13 13:02:47;;;;;;;2.60;1.70;;;;;;;;;;6156578;23;20084;-68
2023/09/13 13:05:14;;;;;;;4.32;1.50;;;;;;;;;;6183519;23;20096;-68
2023/09/13 13:07:41;;;;;;;1.77;1.67;;;;;;;;;;6183694;23;20072;-68
2023/09/13 13:10:08;;;;;;;2.80;1.60;;;;;;;;;;6183491;23;20511;-68
2023/09/13 13:12:34;;;;;;;2.42;1.65;;;;;;;;;;6183747;23;20075;-68
2023/09/13 13:15:00;;;;;;;2.00;1.48;;;;;;;;;;6183757;23;20080;-68
2023/09/13 13:17:35;;;;;;;2.50;1.73;;;;;;;;;;6181655;23;20016;-68
2023/09/13 13:20:08;;;;;;;5.05;1.88;;;;;;;;;;6183284;23;20071;-70
2023/09/13 13:22:34;;;;;;;1.85;1.60;;;;;;;;;;6182808;23;20068;-69
2023/09/13 13:25:00;;;;;;;3.47;1.80;;;;;;;;;;6183411;23;20084;-70
2023/09/13 13:27:28;;;;;;;2.30;1.60;;;;;;;;;;6156811;23;20495;-70
2023/09/13 13:29:55;;;;;;;4.32;1.95;;;;;;;;;;6183175;23;20103;-69
2023/09/13 13:32:21;;;;;;;4.25;2.20;;;;;;;;;;6157741;23;20084;-70
2023/09/13 13:34:47;;;;;;;5.63;2.10;;;;;;;;;;6184473;23;20084;-69
2023/09/13 13:37:14;;;;;;;2.10;1.60;;;;;;;;;;6179657;23;20416;-69
2023/09/13 13:39:40;;;;;;;3.70;1.90;;;;;;;;;;6183757;23;20081;-70
2023/09/13 13:42:06;;;;;;;2.53;1.98;;;;;;;;;;6155088;23;20088;-69
2023/09/13 13:44:34;;;;;;;2.00;1.60;;;;;;;;;;6183083;23;20100;-69
2023/09/13 13:47:00;;;;;;;2.70;1.80;;;;;;;;;;6183581;23;20076;-70
2023/09/13 13:49:27;;;;;;;1.70;1.60;;;;;;;;;;6183394;23;20076;-70
2023/09/13 13:51:53;;;;;;;15.15;2.08;;;;;;;;;;6183492;23;20074;-70
2023/09/13 13:54:20;;;;;;;3.38;2.22;;;;;;;;;;6183326;23;20080;-69
2023/09/13 13:56:46;;;;;;;2.90;1.90;;;;;;;;;;6183166;23;20029;-70
2023/09/13 13:59:13;;;;;;;2.85;1.90;;;;;;;;;;6156456;23;20100;-69
2023/09/13 14:01:40;;;;;;;2.47;1.42;;;;;;;;;;6183783;23;20076;-69
2023/09/13 14:04:06;;;;;;;1.52;1.20;;;;;;;;;;6157240;23;20087;-70
2023/09/13 14:06:33;;;;;;;1.55;1.13;;;;;;;;;;6181922;23;20080;-69
2023/09/13 14:09:03;;;;;;;1.85;1.15;;;;;;;;;;6183425;23;20381;-70
2023/09/13 14:11:30;;;;;;;3.15;1.50;;;;;;;;;;6182677;23;20080;-69
2023/09/13 14:13:56;;;;;;;1.50;1.15;;;;;;;;;;6182703;23;20083;-70
2023/09/13 14:16:22;;;;;;;3.45;0.90;;;;;;;;;;6182915;23;20072;-68
2023/09/13 14:18:48;;;;;;;1.55;1.10;;;;;;;;;;6183029;23;20084;-67
2023/09/13 14:21:15;;;;;;;1.25;1.00;;;;;;;;;;6183230;23;20065;-68
2023/09/13 14:23:41;;;;;;;1.35;1.10;;;;;;;;;;6181602;23;20537;-68
2023/09/13 14:26:07;;;;;;;1.27;1.00;;;;;;;;;;6183171;23;20076;-68
2023/09/13 14:28:35;;;;;;;0.85;0.85;;;;;;;;;;6183573;23;20072;-68
2023/09/13 14:31:01;;;;;;;0.90;0.90;;;;;;;;;;6183702;23;20360;-68
2023/09/13 14:33:31;;;;;;;1.42;0.80;;;;;;;;;;6183816;23;20075;-68
2023/09/13 14:35:57;;;;;;;1.10;1.00;;;;;;;;;;6183823;23;20131;-68
2023/09/13 14:38:24;;;;;;;1.52;1.15;;;;;;;;;;6183638;23;20096;-68
2023/09/13 14:40:50;;;;;;;1.33;1.00;;;;;;;;;;6183910;23;20068;-71
2023/09/13 14:43:16;;;;;;;3.47;1.50;;;;;;;;;;6183546;23;20084;-70
2023/09/13 14:45:43;;;;;;;2.42;1.60;;;;;;;;;;6184288;23;20079;-70